sensor_id;sensor_type;location;lat;lon;timestamp;P1;durP1;ratioP1;P2;durP2;ratioP2
17504;SDS011;8870;50.950;11.762;2024-03-07T00:00:50;7.05;;;6.35;;
17504;SDS011;8870;50.950;11.762;2024-03-07T00:06:09;8.05;;;7.25;;
17504;SDS011;8870;50.950;11.762;2024-03-07T00:11:45;9.73;;;7.90;;
17504;SDS011;8870;50.950;11.762;2024-03-07T00:17:03;9.05;;;8.10;;
17504;SDS011;8870;50.950;11.762;2024-03-07T00:22:35;9.73;;;8.32;;
17504;SDS011;8870;50.950;11.762;2024-03-07T00:27:56;9.45;;;7.95;;
17504;SDS011;8870;50.950;11.762;2024-03-07T00:33:28;10.18;;;8.55;;
17504;SDS011;8870;50.950;11.762;2024-03-07T00:39:07;9.15;;;8.18;;
17504;SDS011;8870;50.950;11.762;2024-03-07T00:44:41;9.23;;;8.32;;
17504;SDS011;8870;50.950;11.762;2024-03-07T00:50:00;10.38;;;9.25;;
17504;SDS011;8870;50.950;11.762;2024-03-07T00:55:32;10.00;;;8.98;;
17504;SDS011;8870;50.950;11.762;2024-03-07T01:00:53;10.43;;;9.23;;
17504;SDS011;8870;50.950;11.762;2024-03-07T01:06:25;10.95;;;9.25;;
17504;SDS011;8870;50.950;11.762;2024-03-07T01:11:43;11.38;;;9.88;;
17504;SDS011;8870;50.950;11.762;2024-03-07T01:17:19;10.63;;;9.63;;
17504;SDS011;8870;50.950;11.762;2024-03-07T01:22:37;10.73;;;9.63;;
17504;SDS011;8870;50.950;11.762;2024-03-07T01:28:09;11.10;;;9.82;;
17504;SDS011;8870;50.950;11.762;2024-03-07T01:33:32;11.30;;;10.07;;
17504;SDS011;8870;50.950;11.762;2024-03-07T01:39:03;10.40;;;9.40;;
17504;SDS011;8870;50.950;11.762;2024-03-07T01:44:22;13.38;;;10.50;;
17504;SDS011;8870;50.950;11.762;2024-03-07T01:49:57;11.10;;;9.85;;
17504;SDS011;8870;50.950;11.762;2024-03-07T01:55:15;10.32;;;9.32;;
17504;SDS011;8870;50.950;11.762;2024-03-07T02:00:47;11.52;;;9.68;;
17504;SDS011;8870;50.950;11.762;2024-03-07T02:06:08;10.57;;;9.57;;
17504;SDS011;8870;50.950;11.762;2024-03-07T02:11:39;11.18;;;10.07;;
17504;SDS011;8870;50.950;11.762;2024-03-07T02:16:57;10.93;;;9.75;;
17504;SDS011;8870;50.950;11.762;2024-03-07T02:22:32;15.18;;;9.82;;
17504;SDS011;8870;50.950;11.762;2024-03-07T02:27:50;10.52;;;9.43;;
17504;SDS011;8870;50.950;11.762;2024-03-07T02:33:21;10.95;;;9.35;;
17504;SDS011;8870;50.950;11.762;2024-03-07T02:38:56;11.32;;;9.60;;
17504;SDS011;8870;50.950;11.762;2024-03-07T02:44:28;11.23;;;9.00;;
17504;SDS011;8870;50.950;11.762;2024-03-07T02:49:46;12.73;;;9.82;;
17504;SDS011;8870;50.950;11.762;2024-03-07T02:55:21;13.82;;;10.98;;
17504;SDS011;8870;50.950;11.762;2024-03-07T03:00:40;17.17;;;12.18;;
17504;SDS011;8870;50.950;11.762;2024-03-07T03:06:12;18.50;;;13.05;;
17504;SDS011;8870;50.950;11.762;2024-03-07T03:11:33;20.65;;;14.70;;
17504;SDS011;8870;50.950;11.762;2024-03-07T03:17:04;23.48;;;15.15;;
17504;SDS011;8870;50.950;11.762;2024-03-07T03:22:23;25.00;;;16.60;;
17504;SDS011;8870;50.950;11.762;2024-03-07T03:27:58;29.35;;;18.00;;
17504;SDS011;8870;50.950;11.762;2024-03-07T03:33:16;36.08;;;20.50;;
17504;SDS011;8870;50.950;11.762;2024-03-07T03:38:47;38.17;;;21.35;;
17504;SDS011;8870;50.950;11.762;2024-03-07T03:44:08;41.75;;;23.20;;
17504;SDS011;8870;50.950;11.762;2024-03-07T03:49:39;46.88;;;25.80;;
17504;SDS011;8870;50.950;11.762;2024-03-07T03:54:57;48.75;;;26.13;;
17504;SDS011;8870;50.950;11.762;2024-03-07T04:00:32;49.90;;;27.85;;
17504;SDS011;8870;50.950;11.762;2024-03-07T04:05:50;48.50;;;26.33;;
17504;SDS011;8870;50.950;11.762;2024-03-07T04:11:21;46.88;;;28.00;;
17504;SDS011;8870;50.950;11.762;2024-03-07T04:16:42;49.35;;;27.20;;
17504;SDS011;8870;50.950;11.762;2024-03-07T04:22:17;48.85;;;27.77;;
17504;SDS011;8870;50.950;11.762;2024-03-07T04:27:35;44.97;;;28.40;;
17504;SDS011;8870;50.950;11.762;2024-03-07T04:33:10;42.70;;;26.83;;
17504;SDS011;8870;50.950;11.762;2024-03-07T04:38:36;44.70;;;28.30;;
17504;SDS011;8870;50.950;11.762;2024-03-07T04:44:09;47.08;;;28.65;;
17504;SDS011;8870;50.950;11.762;2024-03-07T04:49:30;44.75;;;28.50;;
17504;SDS011;8870;50.950;11.762;2024-03-07T04:55:05;39.83;;;27.67;;
17504;SDS011;8870;50.950;11.762;2024-03-07T05:00:25;39.10;;;26.63;;
17504;SDS011;8870;50.950;11.762;2024-03-07T05:05:59;39.58;;;26.83;;
17504;SDS011;8870;50.950;11.762;2024-03-07T05:11:17;41.38;;;25.95;;
17504;SDS011;8870;50.950;11.762;2024-03-07T05:16:48;42.88;;;28.50;;
17504;SDS011;8870;50.950;11.762;2024-03-07T05:22:22;41.80;;;27.17;;
17504;SDS011;8870;50.950;11.762;2024-03-07T05:27:53;28.58;;;19.80;;
17504;SDS011;8870;50.950;11.762;2024-03-07T05:33:11;28.40;;;20.77;;
17504;SDS011;8870;50.950;11.762;2024-03-07T05:38:46;40.72;;;26.15;;
17504;SDS011;8870;50.950;11.762;2024-03-07T05:44:04;43.83;;;27.75;;
17504;SDS011;8870;50.950;11.762;2024-03-07T05:49:36;45.28;;;27.67;;
17504;SDS011;8870;50.950;11.762;2024-03-07T05:54:58;86.15;;;30.60;;
17504;SDS011;8870;50.950;11.762;2024-03-07T06:00:30;75.60;;;32.38;;
17504;SDS011;8870;50.950;11.762;2024-03-07T06:05:49;126.05;;;36.42;;
17504;SDS011;8870;50.950;11.762;2024-03-07T06:11:23;101.25;;;35.35;;
17504;SDS011;8870;50.950;11.762;2024-03-07T06:16:41;76.82;;;35.97;;
17504;SDS011;8870;50.950;11.762;2024-03-07T06:22:13;61.85;;;32.50;;
17504;SDS011;8870;50.950;11.762;2024-03-07T06:27:34;55.42;;;31.20;;
17504;SDS011;8870;50.950;11.762;2024-03-07T06:33:10;54.10;;;32.30;;
17504;SDS011;8870;50.950;11.762;2024-03-07T06:38:39;53.60;;;31.88;;
17504;SDS011;8870;50.950;11.762;2024-03-07T06:44:13;51.22;;;30.50;;
17504;SDS011;8870;50.950;11.762;2024-03-07T06:49:32;48.78;;;29.60;;
17504;SDS011;8870;50.950;11.762;2024-03-07T06:55:04;49.47;;;29.98;;
17504;SDS011;8870;50.950;11.762;2024-03-07T07:00:26;42.75;;;28.45;;
17504;SDS011;8870;50.950;11.762;2024-03-07T07:05:59;40.30;;;27.08;;
17504;SDS011;8870;50.950;11.762;2024-03-07T07:11:17;39.25;;;26.95;;
17504;SDS011;8870;50.950;11.762;2024-03-07T07:16:52;34.33;;;25.58;;
17504;SDS011;8870;50.950;11.762;2024-03-07T07:22:10;34.83;;;25.70;;
17504;SDS011;8870;50.950;11.762;2024-03-07T07:27:42;32.50;;;24.92;;
17504;SDS011;8870;50.950;11.762;2024-03-07T07:33:04;31.15;;;24.30;;
17504;SDS011;8870;50.950;11.762;2024-03-07T07:38:36;30.20;;;22.90;;
17504;SDS011;8870;50.950;11.762;2024-03-07T07:43:54;27.23;;;21.10;;
17504;SDS011;8870;50.950;11.762;2024-03-07T07:49:28;25.13;;;21.05;;
17504;SDS011;8870;50.950;11.762;2024-03-07T07:54:46;25.88;;;21.00;;
17504;SDS011;8870;50.950;11.762;2024-03-07T08:00:19;22.77;;;17.98;;
17504;SDS011;8870;50.950;11.762;2024-03-07T08:05:43;23.98;;;16.08;;
17504;SDS011;8870;50.950;11.762;2024-03-07T08:11:16;17.17;;;15.35;;
17504;SDS011;8870;50.950;11.762;2024-03-07T08:16:34;20.08;;;15.77;;
17504;SDS011;8870;50.950;11.762;2024-03-07T08:22:08;18.05;;;15.07;;
17504;SDS011;8870;50.950;11.762;2024-03-07T08:27:26;15.52;;;13.93;;
17504;SDS011;8870;50.950;11.762;2024-03-07T08:32:57;14.98;;;13.35;;
17504;SDS011;8870;50.950;11.762;2024-03-07T08:38:20;13.93;;;11.32;;
17504;SDS011;8870;50.950;11.762;2024-03-07T08:43:52;14.50;;;11.25;;
17504;SDS011;8870;50.950;11.762;2024-03-07T08:49:10;12.77;;;9.73;;
17504;SDS011;8870;50.950;11.762;2024-03-07T08:54:44;10.65;;;9.23;;
17504;SDS011;8870;50.950;11.762;2024-03-07T09:00:02;12.23;;;8.00;;
17504;SDS011;8870;50.950;11.762;2024-03-07T09:05:43;7.55;;;6.45;;
17504;SDS011;8870;50.950;11.762;2024-03-07T09:11:04;8.32;;;7.43;;
17504;SDS011;8870;50.950;11.762;2024-03-07T09:16:35;10.07;;;7.22;;
17504;SDS011;8870;50.950;11.762;2024-03-07T09:21:54;11.90;;;8.45;;
17504;SDS011;8870;50.950;11.762;2024-03-07T09:27:28;10.68;;;9.00;;
17504;SDS011;8870;50.950;11.762;2024-03-07T09:32:46;10.57;;;7.32;;
17504;SDS011;8870;50.950;11.762;2024-03-07T09:38:18;10.77;;;8.10;;
17504;SDS011;8870;50.950;11.762;2024-03-07T09:43:40;10.95;;;7.65;;
17504;SDS011;8870;50.950;11.762;2024-03-07T09:49:12;9.25;;;6.50;;
17504;SDS011;8870;50.950;11.762;2024-03-07T09:54:31;8.57;;;6.90;;
17504;SDS011;8870;50.950;11.762;2024-03-07T10:00:05;7.93;;;6.18;;
17504;SDS011;8870;50.950;11.762;2024-03-07T10:05:32;7.80;;;6.63;;
17504;SDS011;8870;50.950;11.762;2024-03-07T10:11:10;6.90;;;5.30;;
17504;SDS011;8870;50.950;11.762;2024-03-07T10:16:31;6.85;;;5.20;;
17504;SDS011;8870;50.950;11.762;2024-03-07T10:22:02;7.55;;;5.05;;
17504;SDS011;8870;50.950;11.762;2024-03-07T10:27:21;5.60;;;4.50;;
17504;SDS011;8870;50.950;11.762;2024-03-07T10:32:57;5.85;;;5.00;;
17504;SDS011;8870;50.950;11.762;2024-03-07T10:38:23;6.40;;;5.50;;
17504;SDS011;8870;50.950;11.762;2024-03-07T10:43:57;5.75;;;5.10;;
17504;SDS011;8870;50.950;11.762;2024-03-07T10:49:18;8.10;;;6.03;;
17504;SDS011;8870;50.950;11.762;2024-03-07T10:54:54;7.22;;;5.80;;
17504;SDS011;8870;50.950;11.762;2024-03-07T11:00:26;7.65;;;6.20;;
17504;SDS011;8870;50.950;11.762;2024-03-07T11:06:07;8.38;;;6.28;;
17504;SDS011;8870;50.950;11.762;2024-03-07T11:41:01;6.97;;;5.82;;
17504;SDS011;8870;50.950;11.762;2024-03-07T11:46:35;7.47;;;5.53;;
17504;SDS011;8870;50.950;11.762;2024-03-07T11:51:58;6.05;;;4.88;;
17504;SDS011;8870;50.950;11.762;2024-03-07T11:57:36;6.78;;;5.57;;
17504;SDS011;8870;50.950;11.762;2024-03-07T12:02:55;7.55;;;5.60;;
17504;SDS011;8870;50.950;11.762;2024-03-07T12:08:28;8.13;;;6.20;;
17504;SDS011;8870;50.950;11.762;2024-03-07T12:13:49;6.82;;;5.53;;
17504;SDS011;8870;50.950;11.762;2024-03-07T12:19:20;9.65;;;5.90;;
17504;SDS011;8870;50.950;11.762;2024-03-07T12:24:59;8.20;;;5.65;;
17504;SDS011;8870;50.950;11.762;2024-03-07T12:30:35;7.55;;;6.43;;
17504;SDS011;8870;50.950;11.762;2024-03-07T12:36:05;8.07;;;6.15;;
17504;SDS011;8870;50.950;11.762;2024-03-07T12:41:38;8.25;;;6.43;;
17504;SDS011;8870;50.950;11.762;2024-03-07T12:47:12;8.00;;;6.30;;
17504;SDS011;8870;50.950;11.762;2024-03-07T12:52:38;7.78;;;6.55;;
17504;SDS011;8870;50.950;11.762;2024-03-07T12:58:11;10.50;;;7.15;;
17504;SDS011;8870;50.950;11.762;2024-03-07T13:03:32;8.95;;;7.00;;
17504;SDS011;8870;50.950;11.762;2024-03-07T13:09:06;10.02;;;6.35;;
17504;SDS011;8870;50.950;11.762;2024-03-07T13:14:26;7.47;;;5.88;;
17504;SDS011;8870;50.950;11.762;2024-03-07T13:20:00;8.93;;;6.35;;
17504;SDS011;8870;50.950;11.762;2024-03-07T13:25:31;7.43;;;5.87;;
17504;SDS011;8870;50.950;11.762;2024-03-07T13:31:02;6.40;;;5.50;;
17504;SDS011;8870;50.950;11.762;2024-03-07T13:36:23;7.32;;;5.57;;
17504;SDS011;8870;50.950;11.762;2024-03-07T13:41:54;7.72;;;6.05;;
17504;SDS011;8870;50.950;11.762;2024-03-07T13:47:12;6.57;;;5.60;;
17504;SDS011;8870;50.950;11.762;2024-03-07T13:52:46;7.78;;;5.70;;
17504;SDS011;8870;50.950;11.762;2024-03-07T13:58:23;6.72;;;5.60;;
17504;SDS011;8870;50.950;11.762;2024-03-07T14:27:38;7.40;;;6.70;;
17504;SDS011;8870;50.950;11.762;2024-03-07T14:33:09;7.30;;;6.53;;
17504;SDS011;8870;50.950;11.762;2024-03-07T14:38:43;7.80;;;6.72;;
17504;SDS011;8870;50.950;11.762;2024-03-07T14:44:09;8.25;;;6.70;;
17504;SDS011;8870;50.950;11.762;2024-03-07T14:49:43;8.20;;;6.28;;
17504;SDS011;8870;50.950;11.762;2024-03-07T14:55:02;8.10;;;6.35;;
17504;SDS011;8870;50.950;11.762;2024-03-07T15:00:39;9.63;;;6.50;;
17504;SDS011;8870;50.950;11.762;2024-03-07T15:06:04;7.35;;;6.60;;
17504;SDS011;8870;50.950;11.762;2024-03-07T15:11:37;9.38;;;6.53;;
17504;SDS011;8870;50.950;11.762;2024-03-07T15:38:53;8.23;;;6.88;;
17504;SDS011;8870;50.950;11.762;2024-03-07T15:44:36;9.65;;;7.45;;
17504;SDS011;8870;50.950;11.762;2024-03-07T15:50:00;10.27;;;7.63;;
17504;SDS011;8870;50.950;11.762;2024-03-07T15:55:36;8.73;;;7.68;;
17504;SDS011;8870;50.950;11.762;2024-03-07T16:01:02;10.88;;;7.85;;
17504;SDS011;8870;50.950;11.762;2024-03-07T16:06:39;9.80;;;7.53;;
17504;SDS011;8870;50.950;11.762;2024-03-07T16:12:07;9.55;;;8.00;;
17504;SDS011;8870;50.950;11.762;2024-03-07T16:17:39;8.57;;;7.35;;
17504;SDS011;8870;50.950;11.762;2024-03-07T16:23:00;8.70;;;7.13;;
17504;SDS011;8870;50.950;11.762;2024-03-07T16:28:37;8.68;;;6.80;;
17504;SDS011;8870;50.950;11.762;2024-03-07T16:34:01;9.43;;;6.93;;
17504;SDS011;8870;50.950;11.762;2024-03-07T16:39:32;9.65;;;7.70;;
17504;SDS011;8870;50.950;11.762;2024-03-07T16:44:53;7.85;;;7.00;;
17504;SDS011;8870;50.950;11.762;2024-03-07T16:50:30;8.60;;;7.40;;
17504;SDS011;8870;50.950;11.762;2024-03-07T16:55:55;9.52;;;7.22;;
17504;SDS011;8870;50.950;11.762;2024-03-07T17:01:31;9.05;;;8.05;;
17504;SDS011;8870;50.950;11.762;2024-03-07T17:07:10;8.70;;;7.35;;
17504;SDS011;8870;50.950;11.762;2024-03-07T17:12:47;9.27;;;7.88;;
17504;SDS011;8870;50.950;11.762;2024-03-07T17:18:10;10.40;;;8.30;;
17504;SDS011;8870;50.950;11.762;2024-03-07T17:23:46;9.07;;;8.18;;
17504;SDS011;8870;50.950;11.762;2024-03-07T17:29:09;10.30;;;7.65;;
17504;SDS011;8870;50.950;11.762;2024-03-07T17:40:17;10.88;;;8.68;;
17504;SDS011;8870;50.950;11.762;2024-03-07T17:46:03;11.43;;;9.00;;
17504;SDS011;8870;50.950;11.762;2024-03-07T17:51:29;10.07;;;8.40;;
17504;SDS011;8870;50.950;11.762;2024-03-07T17:57:02;11.52;;;8.85;;
17504;SDS011;8870;50.950;11.762;2024-03-07T18:02:33;9.43;;;8.40;;
17504;SDS011;8870;50.950;11.762;2024-03-07T18:08:12;11.93;;;9.27;;
17504;SDS011;8870;50.950;11.762;2024-03-07T18:13:49;11.52;;;9.52;;
17504;SDS011;8870;50.950;11.762;2024-03-07T18:19:21;10.55;;;8.95;;
17504;SDS011;8870;50.950;11.762;2024-03-07T18:24:42;11.50;;;9.23;;
17504;SDS011;8870;50.950;11.762;2024-03-07T18:30:20;11.10;;;9.07;;
17504;SDS011;8870;50.950;11.762;2024-03-07T18:35:39;11.23;;;9.02;;
17504;SDS011;8870;50.950;11.762;2024-03-07T18:41:20;13.27;;;8.82;;
17504;SDS011;8870;50.950;11.762;2024-03-07T18:46:39;9.95;;;8.75;;
17504;SDS011;8870;50.950;11.762;2024-03-07T18:52:11;11.25;;;9.23;;
17504;SDS011;8870;50.950;11.762;2024-03-07T18:57:34;12.70;;;9.75;;
17504;SDS011;8870;50.950;11.762;2024-03-07T19:03:07;11.15;;;9.60;;
17504;SDS011;8870;50.950;11.762;2024-03-07T19:08:30;9.85;;;8.60;;
17504;SDS011;8870;50.950;11.762;2024-03-07T19:14:04;11.80;;;9.20;;
17504;SDS011;8870;50.950;11.762;2024-03-07T19:19:25;10.50;;;8.40;;
17504;SDS011;8870;50.950;11.762;2024-03-07T19:24:57;11.73;;;8.75;;
17504;SDS011;8870;50.950;11.762;2024-03-07T19:30:22;10.85;;;9.20;;
17504;SDS011;8870;50.950;11.762;2024-03-07T19:35:57;9.63;;;8.63;;
17504;SDS011;8870;50.950;11.762;2024-03-07T19:41:20;13.38;;;9.02;;
17504;SDS011;8870;50.950;11.762;2024-03-07T19:46:55;12.77;;;9.68;;
17504;SDS011;8870;50.950;11.762;2024-03-07T19:52:14;10.32;;;9.10;;
17504;SDS011;8870;50.950;11.762;2024-03-07T19:57:46;12.52;;;9.60;;
17504;SDS011;8870;50.950;11.762;2024-03-07T20:03:13;12.63;;;9.63;;
17504;SDS011;8870;50.950;11.762;2024-03-07T20:08:45;12.95;;;9.38;;
17504;SDS011;8870;50.950;11.762;2024-03-07T20:14:06;13.18;;;9.75;;
17504;SDS011;8870;50.950;11.762;2024-03-07T20:19:41;11.60;;;10.00;;
17504;SDS011;8870;50.950;11.762;2024-03-07T20:25:05;10.63;;;9.52;;
17504;SDS011;8870;50.950;11.762;2024-03-07T20:30:39;13.77;;;10.13;;
17504;SDS011;8870;50.950;11.762;2024-03-07T20:36:03;12.68;;;9.75;;
17504;SDS011;8870;50.950;11.762;2024-03-07T20:46:51;12.65;;;10.13;;
17504;SDS011;8870;50.950;11.762;2024-03-07T20:52:29;12.73;;;10.02;;
17504;SDS011;8870;50.950;11.762;2024-03-07T20:58:05;12.27;;;9.93;;
17504;SDS011;8870;50.950;11.762;2024-03-07T21:03:41;11.35;;;9.95;;
17504;SDS011;8870;50.950;11.762;2024-03-07T21:09:07;13.00;;;10.10;;
17504;SDS011;8870;50.950;11.762;2024-03-07T21:14:40;13.43;;;10.32;;
17504;SDS011;8870;50.950;11.762;2024-03-07T21:20:00;11.02;;;9.65;;
17504;SDS011;8870;50.950;11.762;2024-03-07T21:25:28;12.30;;;11.00;;
17504;SDS011;8870;50.950;11.762;2024-03-07T21:31:01;13.70;;;10.98;;
17504;SDS011;8870;50.950;11.762;2024-03-07T21:36:22;12.80;;;10.90;;
17504;SDS011;8870;50.950;11.762;2024-03-07T21:41:58;14.00;;;11.18;;
17504;SDS011;8870;50.950;11.762;2024-03-07T21:47:18;12.68;;;11.30;;
17504;SDS011;8870;50.950;11.762;2024-03-07T21:52:56;12.20;;;10.90;;
17504;SDS011;8870;50.950;11.762;2024-03-07T21:58:16;14.15;;;11.50;;
17504;SDS011;8870;50.950;11.762;2024-03-07T22:03:49;13.90;;;11.25;;
17504;SDS011;8870;50.950;11.762;2024-03-07T22:09:07;13.48;;;11.13;;
17504;SDS011;8870;50.950;11.762;2024-03-07T22:14:41;11.77;;;10.52;;
17504;SDS011;8870;50.950;11.762;2024-03-07T22:31:38;13.50;;;11.55;;
17504;SDS011;8870;50.950;11.762;2024-03-07T22:43:26;13.32;;;11.68;;
17504;SDS011;8870;50.950;11.762;2024-03-07T23:08:15;14.23;;;11.90;;
17504;SDS011;8870;50.950;11.762;2024-03-07T23:13:49;18.13;;;11.95;;
17504;SDS011;8870;50.950;11.762;2024-03-07T23:19:22;15.68;;;11.98;;
17504;SDS011;8870;50.950;11.762;2024-03-07T23:24:42;15.60;;;11.75;;
17504;SDS011;8870;50.950;11.762;2024-03-07T23:30:19;15.15;;;12.40;;
17504;SDS011;8870;50.950;11.762;2024-03-07T23:35:46;15.80;;;11.80;;
17504;SDS011;8870;50.950;11.762;2024-03-07T23:41:22;15.02;;;12.60;;
17504;SDS011;8870;50.950;11.762;2024-03-07T23:46:42;14.02;;;12.52;;
17504;SDS011;8870;50.950;11.762;2024-03-07T23:52:15;15.45;;;12.55;;
